createdAt,value
2019-02-12T00:02:26.287Z,3.20
2019-02-12T00:04:53.123Z,3.23
2019-02-12T00:07:19.657Z,3.43
2019-02-12T00:09:46.274Z,2.77
2019-02-12T00:12:13.032Z,3.63
2019-02-12T00:14:39.566Z,3.77
2019-02-12T00:17:06.106Z,3.17
2019-02-12T00:19:32.947Z,3.20
2019-02-12T00:21:59.478Z,3.33
2019-02-12T00:24:26.015Z,3.10
2019-02-12T00:26:52.882Z,3.20
2019-02-12T00:29:19.402Z,2.80
2019-02-12T00:31:46.261Z,3.33
2019-02-12T00:34:13.075Z,3.47
2019-02-12T00:36:39.606Z,3.10
2019-02-12T00:39:06.143Z,2.90
2019-02-12T00:41:32.983Z,3.53
2019-02-12T00:43:59.522Z,2.87
2019-02-12T00:46:26.058Z,2.80
2019-02-12T00:48:52.894Z,2.77
2019-02-12T00:51:19.429Z,2.93
2019-02-12T00:53:45.962Z,2.67
2019-02-12T00:56:12.791Z,3.10
2019-02-12T00:58:39.338Z,3.10
2019-02-12T01:01:05.872Z,2.90
2019-02-12T01:03:33.007Z,2.67
2019-02-12T01:05:59.615Z,2.50
2019-02-12T01:08:26.398Z,2.37
2019-02-12T01:10:53.245Z,2.53
2019-02-12T01:13:19.791Z,2.60
2019-02-12T01:15:46.308Z,2.30
2019-02-12T01:18:13.149Z,2.40
2019-02-12T01:20:39.691Z,2.90
2019-02-12T01:23:06.526Z,2.40
2019-02-12T01:25:33.367Z,2.50
2019-02-12T01:27:59.879Z,2.20
2019-02-12T01:30:26.446Z,2.60
2019-02-12T01:32:52.974Z,2.40
2019-02-12T01:35:19.506Z,2.73
2019-02-12T01:37:46.351Z,2.17
2019-02-12T01:40:13.189Z,2.30
2019-02-12T01:42:39.724Z,2.73
2019-02-12T01:45:06.580Z,2.10
2019-02-12T01:47:33.419Z,2.10
2019-02-12T01:49:59.919Z,2.50
2019-02-12T01:52:26.475Z,1.87
2019-02-12T01:54:53.320Z,1.97
2019-02-12T01:57:19.855Z,2.10
2019-02-12T01:59:46.390Z,1.80
2019-02-12T02:02:13.236Z,2.60
2019-02-12T02:04:39.766Z,1.90
2019-02-12T02:07:06.626Z,2.37
2019-02-12T02:09:33.242Z,2.00
2019-02-12T02:11:59.986Z,2.07
2019-02-12T02:14:26.516Z,2.00
2019-02-12T02:16:53.359Z,1.93
2019-02-12T02:19:19.896Z,2.10
2019-02-12T02:21:46.426Z,2.00
2019-02-12T02:24:13.270Z,2.17
2019-02-12T02:26:39.802Z,1.80
2019-02-12T02:29:06.360Z,2.20
2019-02-12T02:31:33.179Z,2.00
2019-02-12T02:33:59.718Z,2.00
2019-02-12T02:36:26.248Z,1.90
2019-02-12T02:38:53.089Z,1.80
2019-02-12T02:41:19.633Z,2.00
2019-02-12T02:43:46.140Z,2.00
2019-02-12T02:46:13.151Z,2.83
2019-02-12T02:48:39.844Z,1.67
2019-02-12T02:51:06.384Z,2.00
2019-02-12T02:53:33.219Z,1.67
2019-02-12T02:55:59.752Z,1.80
2019-02-12T02:58:26.288Z,1.77
2019-02-12T03:00:52.901Z,1.83
2019-02-12T03:03:19.650Z,1.80
2019-02-12T03:05:46.506Z,1.90
2019-02-12T03:08:13.345Z,1.67
2019-02-12T03:10:39.881Z,1.80
2019-02-12T03:13:06.724Z,1.83
2019-02-12T03:15:33.565Z,1.87
2019-02-12T03:18:00.099Z,2.10
2019-02-12T03:20:26.638Z,1.67
2019-02-12T03:22:53.479Z,1.70
2019-02-12T03:25:20.027Z,1.80
2019-02-12T03:27:46.543Z,1.63
2019-02-12T03:30:13.410Z,1.73
2019-02-12T03:32:39.929Z,1.50
2019-02-12T03:35:06.465Z,1.70
2019-02-12T03:37:33.092Z,1.40
2019-02-12T03:39:59.831Z,1.77
2019-02-12T03:42:26.698Z,1.40
2019-02-12T03:44:53.518Z,1.37
2019-02-12T03:47:20.066Z,1.60
2019-02-12T03:49:46.889Z,1.80
2019-02-12T03:52:13.736Z,1.70
2019-02-12T03:54:40.270Z,1.57
2019-02-12T03:57:06.802Z,1.47
2019-02-12T03:59:33.954Z,1.70
2019-02-12T04:02:00.476Z,1.53
2019-02-12T04:04:27.019Z,1.60
2019-02-12T04:06:53.655Z,1.23
2019-02-12T04:09:20.407Z,1.50
2019-02-12T04:11:46.929Z,1.77
2019-02-12T04:14:13.770Z,1.33
2019-02-12T04:16:40.304Z,1.40
2019-02-12T04:19:06.842Z,1.47
2019-02-12T04:21:33.484Z,1.30
2019-02-12T04:24:00.216Z,1.40
2019-02-12T04:26:26.756Z,1.57
2019-02-12T04:28:53.595Z,1.40
2019-02-12T04:31:20.128Z,1.87
2019-02-12T04:33:46.655Z,1.60
2019-02-12T04:36:13.277Z,1.30
2019-02-12T04:38:39.814Z,1.50
2019-02-12T04:41:06.346Z,1.07
2019-02-12T04:43:33.105Z,1.10
2019-02-12T04:45:59.640Z,1.47
2019-02-12T04:48:26.487Z,1.50
2019-02-12T04:50:53.017Z,1.43
2019-02-12T04:53:19.869Z,1.10
2019-02-12T04:55:46.397Z,1.40
2019-02-12T04:58:12.927Z,1.10
2019-02-12T05:00:39.770Z,1.30
2019-02-12T05:03:06.304Z,1.27
2019-02-12T05:05:32.866Z,1.27
2019-02-12T05:07:59.377Z,1.50
2019-02-12T05:10:26.219Z,1.30
2019-02-12T05:12:52.831Z,1.30
2019-02-12T05:15:19.593Z,1.20
2019-02-12T05:17:46.127Z,1.57
2019-02-12T05:20:12.650Z,1.17
2019-02-12T05:22:43.468Z,1.03
2019-02-12T05:25:07.575Z,1.30
2019-02-12T05:27:34.107Z,1.33
2019-02-12T05:30:00.646Z,1.30
2019-02-12T05:32:27.174Z,1.17
2019-02-12T05:34:55.775Z,1.20
2019-02-12T05:37:22.135Z,1.13
2019-02-12T05:39:48.723Z,1.20
2019-02-12T05:42:15.464Z,1.20
2019-02-12T05:44:41.998Z,1.30
2019-02-12T05:47:08.535Z,1.07
2019-02-12T05:49:35.376Z,1.00
2019-02-12T05:52:01.907Z,1.13
2019-02-12T05:54:28.753Z,1.00
2019-02-12T05:56:55.594Z,1.20
2019-02-12T05:59:22.131Z,1.30
2019-02-12T06:01:48.662Z,1.20
2019-02-12T06:04:15.173Z,1.10
2019-02-12T06:06:41.730Z,1.13
2019-02-12T06:09:08.572Z,1.43
2019-02-12T06:11:35.108Z,1.90
2019-02-12T06:14:01.661Z,1.63
2019-02-12T06:16:28.189Z,1.73
2019-02-12T06:18:55.032Z,1.67
2019-02-12T06:21:21.553Z,2.53
2019-02-12T06:23:48.394Z,1.67
2019-02-12T06:26:14.933Z,1.50
2019-02-12T06:28:41.439Z,1.37
2019-02-12T06:31:08.002Z,1.47
2019-02-12T06:33:34.837Z,1.67
2019-02-12T06:36:01.381Z,1.40
2019-02-12T06:38:27.905Z,1.20
2019-02-12T06:40:54.445Z,1.20
2019-02-12T06:43:20.981Z,1.20
2019-02-12T06:45:47.817Z,1.17
2019-02-12T06:48:14.661Z,1.57
2019-02-12T06:50:41.501Z,1.00
2019-02-12T06:53:12.519Z,1.30
2019-02-12T06:55:36.720Z,1.27
2019-02-12T06:58:03.575Z,1.40
2019-02-12T07:00:30.097Z,1.33
2019-02-12T07:02:56.968Z,1.20
2019-02-12T07:05:23.779Z,1.37
2019-02-12T07:07:50.314Z,1.50
2019-02-12T07:10:16.940Z,1.60
2019-02-12T07:12:43.462Z,1.30
2019-02-12T07:15:10.226Z,1.20
2019-02-12T07:17:36.786Z,1.30
2019-02-12T07:20:03.600Z,1.27
2019-02-12T07:22:30.447Z,1.30
2019-02-12T07:24:56.976Z,1.27
2019-02-12T07:27:23.819Z,1.33
2019-02-12T07:29:50.695Z,1.40
2019-02-12T07:32:17.503Z,1.03
2019-02-12T07:34:44.355Z,1.50
2019-02-12T07:37:10.881Z,1.30
2019-02-12T07:39:37.726Z,1.10
2019-02-12T07:42:04.576Z,1.10
2019-02-12T07:44:31.097Z,1.40
2019-02-12T07:46:57.940Z,1.23
2019-02-12T07:49:24.471Z,1.33
2019-02-12T07:51:51.006Z,1.47
2019-02-12T07:54:17.543Z,1.40
2019-02-12T07:56:44.075Z,1.60
2019-02-12T07:59:10.919Z,1.10
2019-02-12T08:01:37.455Z,1.20
2019-02-12T08:04:04.133Z,1.50
2019-02-12T08:06:30.833Z,1.73
2019-02-12T08:08:57.668Z,2.00
2019-02-12T08:11:24.306Z,1.40
2019-02-12T08:13:50.930Z,1.40
2019-02-12T08:16:17.580Z,1.57
2019-02-12T08:18:44.124Z,1.40
2019-02-12T08:21:10.654Z,1.90
2019-02-12T08:23:41.311Z,1.30
2019-02-12T08:26:05.564Z,1.10
2019-02-12T08:28:32.095Z,1.50
2019-02-12T08:30:58.942Z,1.30
2019-02-12T08:33:25.475Z,1.60
2019-02-12T08:35:57.336Z,1.17
2019-02-12T08:38:20.383Z,1.23
2019-02-12T08:40:46.919Z,1.30
2019-02-12T08:43:13.454Z,1.53
2019-02-12T08:45:40.297Z,1.20
2019-02-12T08:48:06.831Z,1.20
2019-02-12T08:50:33.366Z,1.30
2019-02-12T08:53:00.205Z,1.20
2019-02-12T08:55:26.743Z,2.07
2019-02-12T08:57:53.251Z,1.60
2019-02-12T09:00:19.814Z,1.30
2019-02-12T09:02:46.344Z,1.47
2019-02-12T09:05:12.879Z,1.43
2019-02-12T09:07:39.414Z,1.50
2019-02-12T09:10:05.946Z,1.47
2019-02-12T09:12:32.792Z,1.60
2019-02-12T09:14:59.323Z,1.40
2019-02-12T09:17:25.859Z,1.60
2019-02-12T09:19:52.397Z,1.50
2019-02-12T09:22:19.236Z,1.40
2019-02-12T09:24:46.080Z,1.20
2019-02-12T09:27:12.916Z,1.50
2019-02-12T09:29:39.454Z,1.30
2019-02-12T09:32:06.027Z,1.43
2019-02-12T09:34:32.827Z,1.40
2019-02-12T09:36:59.671Z,1.30
2019-02-12T09:39:26.206Z,1.30
2019-02-12T09:41:53.094Z,1.23
2019-02-12T09:44:19.888Z,1.77
2019-02-12T09:46:46.729Z,1.20
2019-02-12T09:49:13.571Z,1.30
2019-02-12T09:51:40.105Z,1.60
2019-02-12T09:54:08.816Z,1.50
2019-02-12T09:56:35.015Z,1.53
2019-02-12T09:59:01.553Z,1.30
2019-02-12T10:01:28.391Z,1.50
2019-02-12T10:03:54.927Z,1.30
2019-02-12T10:06:24.235Z,1.80
2019-02-12T10:08:49.842Z,1.20
2019-02-12T10:11:16.681Z,1.50
2019-02-12T10:13:43.529Z,1.40
2019-02-12T10:16:10.056Z,1.50
2019-02-12T10:18:36.678Z,1.53
2019-02-12T10:21:03.227Z,1.27
2019-02-12T10:23:29.805Z,1.30
2019-02-12T10:25:56.814Z,1.17
2019-02-12T10:28:23.345Z,1.70
2019-02-12T10:30:49.878Z,1.33
2019-02-12T10:33:16.490Z,1.47
2019-02-12T10:35:43.040Z,1.30
2019-02-12T10:40:36.331Z,1.47
2019-02-12T10:43:02.857Z,1.30
2019-02-12T10:45:29.393Z,1.30
2019-02-12T10:47:55.926Z,1.37
2019-02-12T10:50:22.773Z,1.40
2019-02-12T10:52:49.302Z,1.50
2019-02-12T10:55:16.145Z,1.40
2019-02-12T10:57:42.986Z,1.30
2019-02-12T11:00:09.527Z,1.30
2019-02-12T11:02:36.361Z,1.63
2019-02-12T11:05:02.898Z,1.53
2019-02-12T11:07:29.431Z,1.30
2019-02-12T11:09:56.271Z,1.40
2019-02-12T11:12:22.808Z,1.60
2019-02-12T11:14:49.653Z,1.20
2019-02-12T11:17:16.183Z,1.40
2019-02-12T11:19:42.732Z,1.37
2019-02-12T11:22:09.254Z,1.63
2019-02-12T11:24:35.899Z,1.37
2019-02-12T11:27:02.936Z,1.67
2019-02-12T11:29:30.472Z,1.33
2019-02-12T11:31:57.231Z,1.40
2019-02-12T11:34:23.772Z,1.70
2019-02-12T11:36:50.301Z,1.23
2019-02-12T11:39:16.914Z,1.23
2019-02-12T11:41:43.665Z,1.57
2019-02-12T11:44:10.210Z,1.50
2019-02-12T11:46:37.058Z,1.70
2019-02-12T11:49:03.586Z,1.63
2019-02-12T11:51:30.429Z,1.63
2019-02-12T11:53:56.881Z,1.50
2019-02-12T11:56:23.509Z,1.67
2019-02-12T11:58:50.031Z,1.70
2019-02-12T12:01:16.873Z,1.70
2019-02-12T12:03:43.720Z,2.30
2019-02-12T12:06:10.251Z,1.40
2019-02-12T12:08:36.785Z,1.53
2019-02-12T12:11:03.324Z,1.77
2019-02-12T12:13:30.153Z,1.60
2019-02-12T12:15:57.001Z,1.93
2019-02-12T12:18:23.540Z,1.60
2019-02-12T12:20:50.432Z,1.80
2019-02-12T12:23:16.919Z,1.83
2019-02-12T12:25:43.754Z,1.80
2019-02-12T12:28:10.599Z,1.67
2019-02-12T12:30:37.437Z,1.67
2019-02-12T12:33:04.279Z,1.60
2019-02-12T12:35:31.142Z,1.47
2019-02-12T12:37:57.660Z,1.70
2019-02-12T12:40:24.292Z,2.00
2019-02-12T12:42:51.031Z,1.97
2019-02-12T12:45:17.570Z,2.20
2019-02-12T12:47:44.102Z,2.00
2019-02-12T12:50:10.656Z,2.00
2019-02-12T12:52:37.477Z,1.63
2019-02-12T12:55:04.330Z,1.97
2019-02-12T12:57:30.859Z,1.97
2019-02-12T12:59:57.387Z,1.60
2019-02-12T13:02:24.231Z,1.80
2019-02-12T13:04:50.948Z,1.93
2019-02-12T13:07:17.608Z,1.93
2019-02-12T13:09:44.139Z,1.80
2019-02-12T13:12:10.675Z,1.63
2019-02-12T13:14:37.207Z,1.80
2019-02-12T13:17:04.074Z,1.83
2019-02-12T13:19:30.584Z,1.80
2019-02-12T13:21:57.426Z,1.80
2019-02-12T13:24:23.959Z,1.80
2019-02-12T13:26:52.043Z,1.87
2019-02-12T13:29:19.192Z,2.23
2019-02-12T13:31:45.713Z,2.00
2019-02-12T13:34:12.555Z,1.90
2019-02-12T13:36:39.092Z,1.70
2019-02-12T13:39:05.646Z,1.60
2019-02-12T13:41:32.465Z,1.87
2019-02-12T13:43:59.001Z,2.10
2019-02-12T13:46:25.534Z,2.00
2019-02-12T13:48:52.479Z,2.10
2019-02-12T13:51:19.221Z,1.90
2019-02-12T13:53:46.084Z,2.03
2019-02-12T13:56:12.902Z,1.90
2019-02-12T13:58:39.437Z,1.77
2019-02-12T14:01:05.971Z,2.03
2019-02-12T14:03:32.508Z,1.90
2019-02-12T14:05:59.402Z,1.80
2019-02-12T14:08:26.271Z,1.87
2019-02-12T14:10:53.048Z,2.03
2019-02-12T14:13:21.535Z,2.00
2019-02-12T14:15:48.559Z,1.90
2019-02-12T14:18:15.704Z,2.10
2019-02-12T14:20:42.547Z,2.20
2019-02-12T14:23:09.089Z,2.00
2019-02-12T14:25:35.934Z,1.90
2019-02-12T14:28:02.765Z,2.07
2019-02-12T14:30:29.610Z,2.47
2019-02-12T14:32:56.141Z,4.90
2019-02-12T14:35:22.675Z,5.30
2019-02-12T14:37:49.519Z,5.10
2019-02-12T14:40:16.054Z,5.27
2019-02-12T14:42:42.891Z,5.20
2019-02-12T14:45:09.428Z,5.37
2019-02-12T14:47:35.963Z,5.47
2019-02-12T14:50:02.499Z,6.20
2019-02-12T14:52:29.338Z,5.30
2019-02-12T14:54:55.975Z,5.63
2019-02-12T14:57:22.719Z,4.97
2019-02-12T14:59:49.247Z,4.73
2019-02-12T15:02:16.090Z,4.80
2019-02-12T15:04:43.853Z,4.33
2019-02-12T15:07:10.527Z,4.40
2019-02-12T15:09:37.232Z,4.03
2019-02-12T15:12:03.765Z,4.47
2019-02-12T15:14:30.301Z,4.30
2019-02-12T15:16:57.140Z,3.70
2019-02-12T15:19:23.983Z,3.50
2019-02-12T15:21:50.516Z,3.63
2019-02-12T15:24:17.052Z,3.77
2019-02-12T15:26:43.588Z,3.80
2019-02-12T15:29:10.122Z,3.97
2019-02-12T15:31:36.987Z,4.13
2019-02-12T15:34:03.496Z,3.60
2019-02-12T15:36:30.036Z,3.80
2019-02-12T15:38:56.614Z,4.10
2019-02-12T15:41:23.098Z,3.53
2019-02-12T15:43:49.695Z,3.73
2019-02-12T15:46:16.475Z,4.00
2019-02-12T15:48:43.015Z,3.67
2019-02-12T15:51:09.562Z,3.10
2019-02-12T15:53:36.389Z,3.20
2019-02-12T15:56:03.535Z,3.57
2019-02-12T15:58:30.322Z,3.87
2019-02-12T16:00:57.223Z,3.20
2019-02-12T16:03:23.751Z,3.23
2019-02-12T16:05:50.293Z,3.23
2019-02-12T16:08:17.135Z,3.47
2019-02-12T16:10:43.668Z,3.40
2019-02-12T16:13:11.566Z,3.30
2019-02-12T16:15:38.575Z,3.20
2019-02-12T16:18:05.154Z,3.17
2019-02-12T16:20:33.091Z,3.13
2019-02-12T16:23:00.023Z,3.50
2019-02-12T16:25:26.556Z,3.07
2019-02-12T16:27:53.090Z,3.33
2019-02-12T16:30:19.627Z,3.57
2019-02-12T16:32:46.581Z,3.17
2019-02-12T16:35:13.308Z,3.63
2019-02-12T16:37:39.845Z,3.00
2019-02-12T16:40:06.683Z,3.30
2019-02-12T16:42:33.221Z,3.27
2019-02-12T16:44:59.861Z,3.17
2019-02-12T16:47:26.611Z,3.23
2019-02-12T16:49:53.129Z,3.13
2019-02-12T16:52:21.089Z,2.90
2019-02-12T16:54:48.060Z,3.40
2019-02-12T16:57:15.191Z,2.77
2019-02-12T16:59:41.735Z,3.40
2019-02-12T17:02:08.261Z,3.20
2019-02-12T17:04:35.101Z,3.50
2019-02-12T17:07:01.640Z,3.07
2019-02-12T17:09:28.491Z,3.43
2019-02-12T17:11:55.021Z,2.70
2019-02-12T17:14:21.886Z,3.10
2019-02-12T17:16:48.390Z,3.30
2019-02-12T17:19:14.924Z,3.00
2019-02-12T17:21:41.764Z,2.80
2019-02-12T17:24:08.302Z,3.20
2019-02-12T17:26:34.837Z,3.23
2019-02-12T17:29:01.705Z,3.03
2019-02-12T17:31:28.515Z,3.00
2019-02-12T17:33:55.361Z,2.60
2019-02-12T17:36:21.893Z,2.90
2019-02-12T17:38:50.204Z,2.90
2019-02-12T17:41:17.111Z,2.87
2019-02-12T17:43:43.669Z,2.97
2019-02-12T17:46:10.261Z,2.97
2019-02-12T17:48:37.021Z,2.80
2019-02-12T17:51:03.557Z,3.23
2019-02-12T17:53:30.173Z,3.03
2019-02-12T17:55:56.933Z,3.03
2019-02-12T17:58:23.774Z,3.10
2019-02-12T18:00:50.317Z,3.30
2019-02-12T18:03:16.844Z,3.30
2019-02-12T18:05:43.685Z,3.43
2019-02-12T18:08:10.219Z,3.30
2019-02-12T18:10:37.063Z,3.30
2019-02-12T18:13:03.636Z,3.27
2019-02-12T18:15:30.436Z,3.30
2019-02-12T18:17:56.977Z,3.10
2019-02-12T18:20:26.489Z,3.40
2019-02-12T18:22:51.882Z,3.33
2019-02-12T18:25:18.506Z,4.20
2019-02-12T18:27:45.845Z,2.70
2019-02-12T18:30:12.728Z,3.40
2019-02-12T18:32:39.260Z,3.67
2019-02-12T18:35:05.888Z,3.27
2019-02-12T18:37:32.616Z,3.50
2019-02-12T18:39:59.160Z,2.87
2019-02-12T18:42:25.697Z,3.43
2019-02-12T18:44:52.540Z,3.70
2019-02-12T18:47:19.685Z,3.30
2019-02-12T18:49:46.223Z,3.27
2019-02-12T18:52:12.754Z,3.53
2019-02-12T18:54:39.595Z,3.20
2019-02-12T18:57:06.232Z,3.30
2019-02-12T18:59:32.973Z,3.20
2019-02-12T19:01:59.819Z,3.10
2019-02-12T19:04:26.348Z,3.80
2019-02-12T19:06:53.193Z,3.40
2019-02-12T19:09:19.723Z,3.13
2019-02-12T19:11:54.137Z,3.50
2019-02-12T19:14:14.637Z,3.47
2019-02-12T19:16:41.172Z,3.50
2019-02-12T19:19:08.016Z,3.20
2019-02-12T19:24:23.832Z,3.60
2019-02-12T19:26:50.350Z,3.40
2019-02-12T19:29:17.190Z,3.37
2019-02-12T19:31:44.036Z,3.20
2019-02-12T19:34:10.570Z,3.67
2019-02-12T19:36:37.408Z,3.20
2019-02-12T19:39:04.254Z,3.80
2019-02-12T19:41:30.784Z,3.33
2019-02-12T19:43:57.627Z,3.57
2019-02-12T19:46:24.166Z,3.37
2019-02-12T19:48:51.002Z,3.40
2019-02-12T19:51:17.638Z,3.23
2019-02-12T19:53:44.315Z,3.50
2019-02-12T19:56:10.924Z,3.67
2019-02-12T19:58:37.758Z,3.17
2019-02-12T20:01:04.599Z,3.30
2019-02-12T20:03:31.141Z,3.77
2019-02-12T20:05:57.666Z,3.50
2019-02-12T20:08:24.206Z,3.10
2019-02-12T20:10:50.736Z,3.23
2019-02-12T20:13:17.659Z,3.33
2019-02-12T20:15:44.456Z,3.60
2019-02-12T20:18:10.964Z,3.50
2019-02-12T20:20:37.882Z,3.70
2019-02-12T20:23:04.638Z,3.43
2019-02-12T20:25:31.482Z,3.80
2019-02-12T20:27:58.320Z,3.80
2019-02-12T20:30:24.852Z,3.50
2019-02-12T20:32:53.256Z,3.10
2019-02-12T20:35:20.382Z,3.43
2019-02-12T20:37:47.229Z,3.77
2019-02-12T20:40:13.755Z,3.50
2019-02-12T20:42:40.292Z,3.73
2019-02-12T20:45:06.828Z,3.30
2019-02-12T20:47:33.369Z,3.47
2019-02-12T20:50:00.219Z,4.00
2019-02-12T20:52:27.352Z,3.07
2019-02-12T20:54:53.885Z,3.50
2019-02-12T20:57:20.428Z,3.53
2019-02-12T20:59:46.952Z,3.53
2019-02-12T21:02:13.574Z,3.47
2019-02-12T21:04:40.333Z,3.97
2019-02-12T21:07:07.171Z,4.00
2019-02-12T21:09:34.015Z,4.47
2019-02-12T21:12:00.955Z,4.00
2019-02-12T21:14:27.699Z,3.97
2019-02-12T21:16:54.236Z,4.13
2019-02-12T21:19:20.767Z,5.00
2019-02-12T21:21:47.401Z,3.83
2019-02-12T21:24:14.141Z,4.30
2019-02-12T21:26:40.779Z,4.87
2019-02-12T21:29:07.520Z,4.57
2019-02-12T21:31:34.051Z,4.73
2019-02-12T21:34:00.897Z,4.90
2019-02-12T21:36:27.427Z,4.83
2019-02-12T21:38:54.270Z,4.83
2019-02-12T21:41:20.803Z,4.63
2019-02-12T21:43:47.343Z,4.73
2019-02-12T21:46:13.871Z,4.50
2019-02-12T21:48:40.722Z,4.67
2019-02-12T21:51:07.559Z,4.23
2019-02-12T21:53:34.098Z,4.00
2019-02-12T21:56:00.629Z,5.47
2019-02-12T21:58:27.160Z,4.67
2019-02-12T22:00:54.005Z,4.63
2019-02-12T22:03:21.394Z,4.70
2019-02-12T22:05:48.304Z,4.93
2019-02-12T22:08:14.839Z,4.97
2019-02-12T22:10:46.333Z,4.80
2019-02-12T22:13:09.747Z,4.53
2019-02-12T22:15:36.590Z,4.90
2019-02-12T22:18:03.121Z,4.17
2019-02-12T22:20:29.738Z,5.40
2019-02-12T22:22:56.486Z,4.77
2019-02-12T22:25:23.038Z,4.93
2019-02-12T22:27:49.876Z,4.27
2019-02-12T22:30:16.716Z,4.60
2019-02-12T22:32:43.259Z,4.17
2019-02-12T22:35:09.783Z,4.40
2019-02-12T22:37:36.334Z,4.67
2019-02-12T22:40:03.161Z,4.60
2019-02-12T22:42:29.700Z,4.57
2019-02-12T22:44:56.228Z,4.20
2019-02-12T22:47:22.767Z,4.30
2019-02-12T22:49:49.300Z,4.73
2019-02-12T22:52:16.141Z,4.03
2019-02-12T22:54:42.675Z,4.20
2019-02-12T22:57:09.518Z,3.97
2019-02-12T22:59:36.054Z,3.87
2019-02-12T23:02:02.792Z,4.87
2019-02-12T23:04:29.425Z,4.23
2019-02-12T23:06:55.962Z,4.40
2019-02-12T23:09:22.578Z,4.20
2019-02-12T23:11:49.353Z,4.50
2019-02-12T23:14:16.594Z,4.70
2019-02-12T23:16:43.502Z,4.73
2019-02-12T23:19:10.177Z,5.17
2019-02-12T23:21:37.090Z,4.87
2019-02-12T23:24:03.853Z,4.53
2019-02-12T23:26:30.798Z,4.27
2019-02-12T23:28:57.539Z,4.43
2019-02-12T23:31:24.074Z,4.90
2019-02-12T23:33:50.611Z,4.70
2019-02-12T23:36:17.451Z,5.07
2019-02-12T23:38:43.988Z,5.10
2019-02-12T23:41:10.829Z,4.60
2019-02-12T23:43:37.358Z,5.07
2019-02-12T23:46:03.894Z,5.20
2019-02-12T23:48:30.429Z,4.93
2019-02-12T23:50:56.963Z,4.57
2019-02-12T23:53:23.577Z,5.10
2019-02-12T23:55:50.336Z,5.17
2019-02-12T23:58:16.880Z,4.67
